sensor_id;sensor_type;location;lat;lon;timestamp;P1;durP1;ratioP1;P2;durP2;ratioP2
56173;SDS011;42058;52.308;20.924;2022-12-20T00:01:12;73.07;;;25.92;;
56173;SDS011;42058;52.308;20.924;2022-12-20T00:03:42;72.95;;;23.95;;
56173;SDS011;42058;52.308;20.924;2022-12-20T00:06:10;72.00;;;25.05;;
56173;SDS011;42058;52.308;20.924;2022-12-20T00:08:37;74.97;;;25.08;;
56173;SDS011;42058;52.308;20.924;2022-12-20T00:11:04;81.87;;;26.10;;
56173;SDS011;42058;52.308;20.924;2022-12-20T00:13:33;79.27;;;25.35;;
56173;SDS011;42058;52.308;20.924;2022-12-20T00:16:03;82.80;;;26.10;;
56173;SDS011;42058;52.308;20.924;2022-12-20T00:18:33;74.00;;;25.02;;
56173;SDS011;42058;52.308;20.924;2022-12-20T00:21:00;85.22;;;29.63;;
56173;SDS011;42058;52.308;20.924;2022-12-20T00:23:28;108.05;;;31.40;;
56173;SDS011;42058;52.308;20.924;2022-12-20T00:26:01;107.97;;;33.13;;
56173;SDS011;42058;52.308;20.924;2022-12-20T00:28:34;79.40;;;27.20;;
56173;SDS011;42058;52.308;20.924;2022-12-20T00:31:02;79.17;;;27.22;;
56173;SDS011;42058;52.308;20.924;2022-12-20T00:33:32;74.80;;;26.05;;
56173;SDS011;42058;52.308;20.924;2022-12-20T00:36:00;63.98;;;23.90;;
56173;SDS011;42058;52.308;20.924;2022-12-20T00:38:26;66.42;;;23.15;;
56173;SDS011;42058;52.308;20.924;2022-12-20T00:43:44;56.88;;;21.02;;
56173;SDS011;42058;52.308;20.924;2022-12-20T00:46:12;50.03;;;20.30;;
56173;SDS011;42058;52.308;20.924;2022-12-20T00:48:40;53.55;;;20.08;;
56173;SDS011;42058;52.308;20.924;2022-12-20T00:51:07;50.50;;;19.10;;
56173;SDS011;42058;52.308;20.924;2022-12-20T00:53:37;58.50;;;20.88;;
56173;SDS011;42058;52.308;20.924;2022-12-20T00:56:04;51.70;;;20.90;;
56173;SDS011;42058;52.308;20.924;2022-12-20T00:58:32;55.43;;;20.30;;
56173;SDS011;42058;52.308;20.924;2022-12-20T01:01:01;54.83;;;21.57;;
56173;SDS011;42058;52.308;20.924;2022-12-20T01:03:28;48.58;;;19.95;;
56173;SDS011;42058;52.308;20.924;2022-12-20T01:05:55;55.85;;;20.23;;
56173;SDS011;42058;52.308;20.924;2022-12-20T01:08:25;53.33;;;20.05;;
56173;SDS011;42058;52.308;20.924;2022-12-20T01:11:01;53.38;;;19.30;;
56173;SDS011;42058;52.308;20.924;2022-12-20T01:13:31;53.48;;;19.98;;
56173;SDS011;42058;52.308;20.924;2022-12-20T01:16:08;53.33;;;20.45;;
56173;SDS011;42058;52.308;20.924;2022-12-20T01:18:33;56.30;;;19.42;;
56173;SDS011;42058;52.308;20.924;2022-12-20T01:21:05;47.80;;;19.12;;
56173;SDS011;42058;52.308;20.924;2022-12-20T01:23:31;53.17;;;20.02;;
56173;SDS011;42058;52.308;20.924;2022-12-20T01:25:58;50.58;;;20.00;;
56173;SDS011;42058;52.308;20.924;2022-12-20T01:28:26;51.80;;;20.05;;
56173;SDS011;42058;52.308;20.924;2022-12-20T01:30:53;54.18;;;19.37;;
56173;SDS011;42058;52.308;20.924;2022-12-20T01:33:19;50.45;;;18.77;;
56173;SDS011;42058;52.308;20.924;2022-12-20T01:35:58;50.75;;;19.55;;
56173;SDS011;42058;52.308;20.924;2022-12-20T01:40:54;57.83;;;20.00;;
56173;SDS011;42058;52.308;20.924;2022-12-20T01:43:24;57.03;;;20.45;;
56173;SDS011;42058;52.308;20.924;2022-12-20T01:46:10;50.33;;;19.98;;
56173;SDS011;42058;52.308;20.924;2022-12-20T01:48:37;47.10;;;18.98;;
56173;SDS011;42058;52.308;20.924;2022-12-20T01:51:05;50.90;;;18.62;;
56173;SDS011;42058;52.308;20.924;2022-12-20T01:53:32;55.35;;;19.90;;
56173;SDS011;42058;52.308;20.924;2022-12-20T01:55:59;49.70;;;19.15;;
56173;SDS011;42058;52.308;20.924;2022-12-20T01:58:28;51.95;;;19.90;;
56173;SDS011;42058;52.308;20.924;2022-12-20T02:00:55;56.37;;;20.65;;
56173;SDS011;42058;52.308;20.924;2022-12-20T02:03:21;51.60;;;19.75;;
56173;SDS011;42058;52.308;20.924;2022-12-20T02:05:47;45.17;;;18.40;;
56173;SDS011;42058;52.308;20.924;2022-12-20T02:08:15;48.15;;;18.75;;
56173;SDS011;42058;52.308;20.924;2022-12-20T02:10:50;47.65;;;19.10;;
56173;SDS011;42058;52.308;20.924;2022-12-20T02:13:56;42.38;;;17.20;;
56173;SDS011;42058;52.308;20.924;2022-12-20T02:16:42;52.70;;;18.87;;
56173;SDS011;42058;52.308;20.924;2022-12-20T02:19:27;55.73;;;19.07;;
56173;SDS011;42058;52.308;20.924;2022-12-20T02:22:23;44.70;;;18.65;;
56173;SDS011;42058;52.308;20.924;2022-12-20T02:28:00;49.13;;;19.15;;
56173;SDS011;42058;52.308;20.924;2022-12-20T02:30:48;41.15;;;17.90;;
56173;SDS011;42058;52.308;20.924;2022-12-20T02:33:19;50.52;;;19.23;;
56173;SDS011;42058;52.308;20.924;2022-12-20T02:35:48;50.55;;;18.70;;
56173;SDS011;42058;52.308;20.924;2022-12-20T02:38:26;49.03;;;18.62;;
56173;SDS011;42058;52.308;20.924;2022-12-20T02:41:00;44.58;;;18.77;;
56173;SDS011;42058;52.308;20.924;2022-12-20T02:43:29;47.62;;;19.07;;
56173;SDS011;42058;52.308;20.924;2022-12-20T02:46:17;44.88;;;18.23;;
56173;SDS011;42058;52.308;20.924;2022-12-20T02:48:46;43.73;;;17.42;;
56173;SDS011;42058;52.308;20.924;2022-12-20T02:51:14;46.60;;;18.17;;
56173;SDS011;42058;52.308;20.924;2022-12-20T02:53:43;43.87;;;17.75;;
56173;SDS011;42058;52.308;20.924;2022-12-20T02:56:19;50.48;;;19.37;;
56173;SDS011;42058;52.308;20.924;2022-12-20T02:58:54;46.92;;;19.10;;
56173;SDS011;42058;52.308;20.924;2022-12-20T03:01:32;45.33;;;18.82;;
56173;SDS011;42058;52.308;20.924;2022-12-20T03:04:06;46.92;;;17.92;;
56173;SDS011;42058;52.308;20.924;2022-12-20T03:06:33;47.03;;;17.75;;
56173;SDS011;42058;52.308;20.924;2022-12-20T03:09:00;46.13;;;18.23;;
56173;SDS011;42058;52.308;20.924;2022-12-20T03:11:27;52.85;;;18.60;;
56173;SDS011;42058;52.308;20.924;2022-12-20T03:13:53;44.40;;;17.30;;
56173;SDS011;42058;52.308;20.924;2022-12-20T03:16:20;44.53;;;18.23;;
56173;SDS011;42058;52.308;20.924;2022-12-20T03:18:46;37.58;;;16.00;;
56173;SDS011;42058;52.308;20.924;2022-12-20T03:21:12;44.48;;;17.12;;
56173;SDS011;42058;52.308;20.924;2022-12-20T03:23:38;43.25;;;18.12;;
56173;SDS011;42058;52.308;20.924;2022-12-20T03:26:05;43.40;;;17.52;;
56173;SDS011;42058;52.308;20.924;2022-12-20T03:28:35;44.73;;;18.05;;
56173;SDS011;42058;52.308;20.924;2022-12-20T03:31:02;44.67;;;17.77;;
56173;SDS011;42058;52.308;20.924;2022-12-20T03:33:30;40.63;;;16.10;;
56173;SDS011;42058;52.308;20.924;2022-12-20T03:35:57;43.05;;;17.30;;
56173;SDS011;42058;52.308;20.924;2022-12-20T03:38:23;42.50;;;16.77;;
56173;SDS011;42058;52.308;20.924;2022-12-20T03:40:49;45.35;;;17.27;;
56173;SDS011;42058;52.308;20.924;2022-12-20T03:43:16;38.00;;;16.35;;
56173;SDS011;42058;52.308;20.924;2022-12-20T03:45:43;43.80;;;18.17;;
56173;SDS011;42058;52.308;20.924;2022-12-20T03:48:09;46.83;;;17.55;;
56173;SDS011;42058;52.308;20.924;2022-12-20T03:50:35;45.30;;;17.50;;
56173;SDS011;42058;52.308;20.924;2022-12-20T03:53:01;40.60;;;17.12;;
56173;SDS011;42058;52.308;20.924;2022-12-20T03:55:27;37.98;;;16.05;;
56173;SDS011;42058;52.308;20.924;2022-12-20T03:57:54;44.10;;;17.07;;
56173;SDS011;42058;52.308;20.924;2022-12-20T04:00:22;44.80;;;17.25;;
56173;SDS011;42058;52.308;20.924;2022-12-20T04:02:49;38.75;;;16.82;;
56173;SDS011;42058;52.308;20.924;2022-12-20T04:05:16;38.30;;;15.60;;
56173;SDS011;42058;52.308;20.924;2022-12-20T04:07:43;42.00;;;16.40;;
56173;SDS011;42058;52.308;20.924;2022-12-20T04:10:10;39.27;;;15.53;;
56173;SDS011;42058;52.308;20.924;2022-12-20T04:12:36;43.80;;;16.32;;
56173;SDS011;42058;52.308;20.924;2022-12-20T04:15:04;39.40;;;16.20;;
56173;SDS011;42058;52.308;20.924;2022-12-20T04:17:32;34.88;;;15.25;;
56173;SDS011;42058;52.308;20.924;2022-12-20T04:19:58;39.03;;;16.50;;
56173;SDS011;42058;52.308;20.924;2022-12-20T04:22:26;35.63;;;14.85;;
56173;SDS011;42058;52.308;20.924;2022-12-20T04:24:54;43.38;;;16.70;;
56173;SDS011;42058;52.308;20.924;2022-12-20T04:27:22;42.98;;;17.70;;
56173;SDS011;42058;52.308;20.924;2022-12-20T04:29:49;42.85;;;16.70;;
56173;SDS011;42058;52.308;20.924;2022-12-20T04:32:16;38.42;;;15.95;;
56173;SDS011;42058;52.308;20.924;2022-12-20T04:34:42;38.50;;;16.02;;
56173;SDS011;42058;52.308;20.924;2022-12-20T04:37:09;38.40;;;16.48;;
56173;SDS011;42058;52.308;20.924;2022-12-20T04:39:37;35.90;;;15.85;;
56173;SDS011;42058;52.308;20.924;2022-12-20T04:42:20;34.50;;;15.05;;
56173;SDS011;42058;52.308;20.924;2022-12-20T04:44:47;36.55;;;15.28;;
56173;SDS011;42058;52.308;20.924;2022-12-20T04:47:15;38.17;;;15.80;;
56173;SDS011;42058;52.308;20.924;2022-12-20T04:49:42;31.77;;;14.65;;
56173;SDS011;42058;52.308;20.924;2022-12-20T04:52:08;37.28;;;15.78;;
56173;SDS011;42058;52.308;20.924;2022-12-20T04:54:53;35.83;;;14.28;;
56173;SDS011;42058;52.308;20.924;2022-12-20T04:57:21;33.80;;;14.18;;
56173;SDS011;42058;52.308;20.924;2022-12-20T04:59:47;38.65;;;14.65;;
56173;SDS011;42058;52.308;20.924;2022-12-20T05:02:13;33.35;;;14.33;;
56173;SDS011;42058;52.308;20.924;2022-12-20T05:04:41;39.55;;;16.02;;
56173;SDS011;42058;52.308;20.924;2022-12-20T05:07:07;36.90;;;14.40;;
56173;SDS011;42058;52.308;20.924;2022-12-20T05:09:34;34.67;;;14.38;;
56173;SDS011;42058;52.308;20.924;2022-12-20T05:12:00;31.97;;;14.23;;
56173;SDS011;42058;52.308;20.924;2022-12-20T05:14:27;34.25;;;15.35;;
56173;SDS011;42058;52.308;20.924;2022-12-20T05:16:53;37.40;;;14.07;;
56173;SDS011;42058;52.308;20.924;2022-12-20T05:19:19;36.33;;;14.68;;
56173;SDS011;42058;52.308;20.924;2022-12-20T05:21:45;30.77;;;14.43;;
56173;SDS011;42058;52.308;20.924;2022-12-20T05:24:31;35.13;;;15.40;;
56173;SDS011;42058;52.308;20.924;2022-12-20T05:29:50;37.75;;;14.25;;
56173;SDS011;42058;52.308;20.924;2022-12-20T05:32:16;36.10;;;13.78;;
56173;SDS011;42058;52.308;20.924;2022-12-20T05:34:42;35.03;;;15.28;;
56173;SDS011;42058;52.308;20.924;2022-12-20T05:37:08;32.48;;;14.90;;
56173;SDS011;42058;52.308;20.924;2022-12-20T05:39:35;42.23;;;15.35;;
56173;SDS011;42058;52.308;20.924;2022-12-20T05:42:03;37.08;;;14.60;;
56173;SDS011;42058;52.308;20.924;2022-12-20T05:44:29;37.03;;;15.05;;
56173;SDS011;42058;52.308;20.924;2022-12-20T05:46:56;38.85;;;15.05;;
56173;SDS011;42058;52.308;20.924;2022-12-20T05:49:36;39.98;;;14.95;;
56173;SDS011;42058;52.308;20.924;2022-12-20T05:52:03;35.40;;;15.03;;
56173;SDS011;42058;52.308;20.924;2022-12-20T05:54:30;38.78;;;15.28;;
56173;SDS011;42058;52.308;20.924;2022-12-20T05:57:04;33.90;;;14.95;;
56173;SDS011;42058;52.308;20.924;2022-12-20T05:59:35;36.08;;;15.13;;
56173;SDS011;42058;52.308;20.924;2022-12-20T06:02:01;36.98;;;15.32;;
56173;SDS011;42058;52.308;20.924;2022-12-20T06:04:28;44.60;;;15.90;;
56173;SDS011;42058;52.308;20.924;2022-12-20T06:06:57;35.28;;;15.75;;
56173;SDS011;42058;52.308;20.924;2022-12-20T06:09:24;32.98;;;14.45;;
56173;SDS011;42058;52.308;20.924;2022-12-20T06:11:55;37.67;;;16.75;;
56173;SDS011;42058;52.308;20.924;2022-12-20T06:14:22;39.92;;;15.98;;
56173;SDS011;42058;52.308;20.924;2022-12-20T06:16:48;37.67;;;16.37;;
56173;SDS011;42058;52.308;20.924;2022-12-20T06:19:15;40.78;;;15.83;;
56173;SDS011;42058;52.308;20.924;2022-12-20T06:21:42;38.83;;;15.43;;
56173;SDS011;42058;52.308;20.924;2022-12-20T06:24:10;43.48;;;16.45;;
56173;SDS011;42058;52.308;20.924;2022-12-20T06:26:38;40.73;;;16.05;;
56173;SDS011;42058;52.308;20.924;2022-12-20T06:29:05;38.90;;;16.35;;
56173;SDS011;42058;52.308;20.924;2022-12-20T06:31:35;36.58;;;15.93;;
56173;SDS011;42058;52.308;20.924;2022-12-20T06:34:01;35.28;;;16.00;;
56173;SDS011;42058;52.308;20.924;2022-12-20T06:36:29;35.20;;;15.28;;
56173;SDS011;42058;52.308;20.924;2022-12-20T06:38:55;37.60;;;15.30;;
56173;SDS011;42058;52.308;20.924;2022-12-20T06:41:21;34.20;;;14.75;;
56173;SDS011;42058;52.308;20.924;2022-12-20T06:43:47;38.80;;;15.20;;
56173;SDS011;42058;52.308;20.924;2022-12-20T06:46:13;31.95;;;14.45;;
56173;SDS011;42058;52.308;20.924;2022-12-20T06:48:40;38.80;;;15.75;;
56173;SDS011;42058;52.308;20.924;2022-12-20T06:51:08;39.95;;;15.38;;
56173;SDS011;42058;52.308;20.924;2022-12-20T06:53:37;35.75;;;15.60;;
56173;SDS011;42058;52.308;20.924;2022-12-20T06:56:03;36.30;;;15.40;;
56173;SDS011;42058;52.308;20.924;2022-12-20T06:58:30;33.58;;;14.63;;
56173;SDS011;42058;52.308;20.924;2022-12-20T07:00:56;39.13;;;14.35;;
56173;SDS011;42058;52.308;20.924;2022-12-20T07:03:22;34.53;;;14.95;;
56173;SDS011;42058;52.308;20.924;2022-12-20T07:05:51;35.17;;;14.38;;
56173;SDS011;42058;52.308;20.924;2022-12-20T07:08:19;33.90;;;15.13;;
56173;SDS011;42058;52.308;20.924;2022-12-20T07:10:46;32.67;;;14.98;;
56173;SDS011;42058;52.308;20.924;2022-12-20T07:13:13;39.48;;;15.20;;
56173;SDS011;42058;52.308;20.924;2022-12-20T07:15:39;32.45;;;15.18;;
56173;SDS011;42058;52.308;20.924;2022-12-20T07:18:05;38.67;;;15.85;;
56173;SDS011;42058;52.308;20.924;2022-12-20T07:20:31;35.80;;;15.63;;
56173;SDS011;42058;52.308;20.924;2022-12-20T07:22:57;36.70;;;15.35;;
56173;SDS011;42058;52.308;20.924;2022-12-20T07:25:24;37.20;;;15.48;;
56173;SDS011;42058;52.308;20.924;2022-12-20T07:27:50;40.17;;;16.12;;
56173;SDS011;42058;52.308;20.924;2022-12-20T07:30:17;37.17;;;15.85;;
56173;SDS011;42058;52.308;20.924;2022-12-20T07:32:44;41.30;;;15.98;;
56173;SDS011;42058;52.308;20.924;2022-12-20T07:35:11;36.98;;;14.85;;
56173;SDS011;42058;52.308;20.924;2022-12-20T07:37:39;35.05;;;15.20;;
56173;SDS011;42058;52.308;20.924;2022-12-20T07:40:06;41.70;;;14.65;;
56173;SDS011;42058;52.308;20.924;2022-12-20T07:42:34;40.78;;;15.35;;
56173;SDS011;42058;52.308;20.924;2022-12-20T07:45:00;41.80;;;15.43;;
56173;SDS011;42058;52.308;20.924;2022-12-20T07:47:27;50.48;;;16.15;;
56173;SDS011;42058;52.308;20.924;2022-12-20T07:49:54;56.23;;;18.42;;
56173;SDS011;42058;52.308;20.924;2022-12-20T07:52:20;48.80;;;16.37;;
56173;SDS011;42058;52.308;20.924;2022-12-20T07:54:51;59.25;;;17.05;;
56173;SDS011;42058;52.308;20.924;2022-12-20T07:57:22;52.30;;;15.18;;
56173;SDS011;42058;52.308;20.924;2022-12-20T07:59:59;42.03;;;15.35;;
56173;SDS011;42058;52.308;20.924;2022-12-20T08:02:34;45.58;;;15.25;;
56173;SDS011;42058;52.308;20.924;2022-12-20T08:05:04;54.93;;;16.37;;
56173;SDS011;42058;52.308;20.924;2022-12-20T08:07:33;48.90;;;17.42;;
56173;SDS011;42058;52.308;20.924;2022-12-20T08:10:00;48.17;;;16.05;;
56173;SDS011;42058;52.308;20.924;2022-12-20T08:12:27;54.80;;;16.65;;
56173;SDS011;42058;52.308;20.924;2022-12-20T08:14:56;39.13;;;16.32;;
56173;SDS011;42058;52.308;20.924;2022-12-20T08:17:22;40.43;;;16.75;;
56173;SDS011;42058;52.308;20.924;2022-12-20T08:19:49;41.37;;;16.60;;
56173;SDS011;42058;52.308;20.924;2022-12-20T08:22:18;39.10;;;15.95;;
56173;SDS011;42058;52.308;20.924;2022-12-20T08:24:44;40.03;;;16.25;;
56173;SDS011;42058;52.308;20.924;2022-12-20T08:27:11;38.48;;;15.80;;
56173;SDS011;42058;52.308;20.924;2022-12-20T08:29:37;36.80;;;15.00;;
56173;SDS011;42058;52.308;20.924;2022-12-20T08:32:03;37.10;;;15.38;;
56173;SDS011;42058;52.308;20.924;2022-12-20T08:34:29;35.45;;;15.10;;
56173;SDS011;42058;52.308;20.924;2022-12-20T08:36:55;36.28;;;14.87;;
56173;SDS011;42058;52.308;20.924;2022-12-20T08:39:21;40.00;;;15.70;;
56173;SDS011;42058;52.308;20.924;2022-12-20T08:41:47;33.80;;;14.68;;
56173;SDS011;42058;52.308;20.924;2022-12-20T08:44:14;39.13;;;15.25;;
56173;SDS011;42058;52.308;20.924;2022-12-20T08:46:40;51.05;;;15.88;;
56173;SDS011;42058;52.308;20.924;2022-12-20T08:49:07;38.13;;;15.65;;
56173;SDS011;42058;52.308;20.924;2022-12-20T08:51:33;38.50;;;15.43;;
56173;SDS011;42058;52.308;20.924;2022-12-20T08:54:00;44.05;;;16.70;;
56173;SDS011;42058;52.308;20.924;2022-12-20T08:56:27;40.52;;;15.38;;
56173;SDS011;42058;52.308;20.924;2022-12-20T08:58:53;39.45;;;16.62;;
56173;SDS011;42058;52.308;20.924;2022-12-20T09:01:19;41.75;;;15.68;;
56173;SDS011;42058;52.308;20.924;2022-12-20T09:03:47;38.05;;;15.50;;
56173;SDS011;42058;52.308;20.924;2022-12-20T09:06:15;38.88;;;16.30;;
56173;SDS011;42058;52.308;20.924;2022-12-20T09:08:44;41.75;;;15.83;;
56173;SDS011;42058;52.308;20.924;2022-12-20T09:11:13;43.02;;;16.67;;
56173;SDS011;42058;52.308;20.924;2022-12-20T09:13:44;50.80;;;16.20;;
56173;SDS011;42058;52.308;20.924;2022-12-20T09:16:13;63.02;;;17.82;;
56173;SDS011;42058;52.308;20.924;2022-12-20T09:18:42;54.15;;;17.48;;
56173;SDS011;42058;52.308;20.924;2022-12-20T09:21:09;56.02;;;18.98;;
56173;SDS011;42058;52.308;20.924;2022-12-20T09:23:36;71.02;;;17.98;;
56173;SDS011;42058;52.308;20.924;2022-12-20T09:26:05;63.38;;;19.00;;
56173;SDS011;42058;52.308;20.924;2022-12-20T09:28:35;58.87;;;18.80;;
56173;SDS011;42058;52.308;20.924;2022-12-20T09:31:03;61.05;;;19.20;;
56173;SDS011;42058;52.308;20.924;2022-12-20T09:33:32;60.00;;;18.70;;
56173;SDS011;42058;52.308;20.924;2022-12-20T09:35:59;70.65;;;18.62;;
56173;SDS011;42058;52.308;20.924;2022-12-20T09:38:27;63.00;;;19.73;;
56173;SDS011;42058;52.308;20.924;2022-12-20T09:40:59;62.85;;;19.02;;
56173;SDS011;42058;52.308;20.924;2022-12-20T09:43:25;92.70;;;20.37;;
56173;SDS011;42058;52.308;20.924;2022-12-20T09:45:54;64.70;;;19.15;;
56173;SDS011;42058;52.308;20.924;2022-12-20T09:48:41;56.85;;;18.35;;
56173;SDS011;42058;52.308;20.924;2022-12-20T10:00:17;43.60;;;17.00;;
56173;SDS011;42058;52.308;20.924;2022-12-20T10:02:44;42.65;;;17.65;;
56173;SDS011;42058;52.308;20.924;2022-12-20T10:05:14;40.35;;;16.82;;
56173;SDS011;42058;52.308;20.924;2022-12-20T10:11:07;40.78;;;17.75;;
56173;SDS011;42058;52.308;20.924;2022-12-20T10:19:17;40.52;;;16.20;;
56173;SDS011;42058;52.308;20.924;2022-12-20T10:24:50;38.23;;;15.95;;
56173;SDS011;42058;52.308;20.924;2022-12-20T10:27:27;38.28;;;16.80;;
56173;SDS011;42058;52.308;20.924;2022-12-20T10:29:53;47.20;;;17.42;;
56173;SDS011;42058;52.308;20.924;2022-12-20T10:32:21;44.88;;;17.55;;
56173;SDS011;42058;52.308;20.924;2022-12-20T10:34:54;45.95;;;17.40;;
56173;SDS011;42058;52.308;20.924;2022-12-20T10:37:26;42.23;;;17.35;;
56173;SDS011;42058;52.308;20.924;2022-12-20T10:39:52;48.55;;;18.30;;
56173;SDS011;42058;52.308;20.924;2022-12-20T10:42:37;45.12;;;18.37;;
56173;SDS011;42058;52.308;20.924;2022-12-20T10:45:09;42.55;;;18.02;;
56173;SDS011;42058;52.308;20.924;2022-12-20T10:47:45;40.55;;;16.62;;
56173;SDS011;42058;52.308;20.924;2022-12-20T10:50:19;48.25;;;19.50;;
56173;SDS011;42058;52.308;20.924;2022-12-20T10:55:41;43.05;;;16.93;;
56173;SDS011;42058;52.308;20.924;2022-12-20T10:58:15;39.33;;;18.00;;
56173;SDS011;42058;52.308;20.924;2022-12-20T11:00:48;42.48;;;17.25;;
56173;SDS011;42058;52.308;20.924;2022-12-20T11:08:28;44.10;;;17.48;;
56173;SDS011;42058;52.308;20.924;2022-12-20T11:11:30;37.95;;;16.75;;
56173;SDS011;42058;52.308;20.924;2022-12-20T11:13:43;41.98;;;17.90;;
56173;SDS011;42058;52.308;20.924;2022-12-20T11:17:14;41.83;;;17.32;;
56173;SDS011;42058;52.308;20.924;2022-12-20T11:24:28;44.88;;;17.87;;
56173;SDS011;42058;52.308;20.924;2022-12-20T11:30:38;43.13;;;17.67;;
56173;SDS011;42058;52.308;20.924;2022-12-20T11:33:39;41.37;;;17.40;;
56173;SDS011;42058;52.308;20.924;2022-12-20T11:36:17;53.17;;;18.80;;
56173;SDS011;42058;52.308;20.924;2022-12-20T11:39:14;40.80;;;16.60;;
56173;SDS011;42058;52.308;20.924;2022-12-20T11:41:49;43.80;;;17.67;;
56173;SDS011;42058;52.308;20.924;2022-12-20T11:44:40;46.70;;;17.42;;
56173;SDS011;42058;52.308;20.924;2022-12-20T11:47:23;46.98;;;18.02;;
56173;SDS011;42058;52.308;20.924;2022-12-20T11:55:36;52.70;;;18.70;;
56173;SDS011;42058;52.308;20.924;2022-12-20T11:58:17;61.25;;;19.95;;
56173;SDS011;42058;52.308;20.924;2022-12-20T12:00:55;67.42;;;20.50;;
56173;SDS011;42058;52.308;20.924;2022-12-20T12:03:35;66.87;;;20.80;;
56173;SDS011;42058;52.308;20.924;2022-12-20T12:08:49;65.70;;;19.90;;
56173;SDS011;42058;52.308;20.924;2022-12-20T12:11:29;67.62;;;20.72;;
56173;SDS011;42058;52.308;20.924;2022-12-20T12:14:00;56.70;;;19.02;;
56173;SDS011;42058;52.308;20.924;2022-12-20T12:16:39;73.95;;;19.80;;
56173;SDS011;42058;52.308;20.924;2022-12-20T12:19:10;57.10;;;19.92;;
56173;SDS011;42058;52.308;20.924;2022-12-20T12:21:39;63.98;;;19.35;;
56173;SDS011;42058;52.308;20.924;2022-12-20T12:24:29;60.12;;;19.48;;
56173;SDS011;42058;52.308;20.924;2022-12-20T12:27:09;65.37;;;19.42;;
56173;SDS011;42058;52.308;20.924;2022-12-20T12:29:41;56.50;;;18.98;;
56173;SDS011;42058;52.308;20.924;2022-12-20T12:32:08;62.43;;;19.23;;
56173;SDS011;42058;52.308;20.924;2022-12-20T12:34:58;49.45;;;19.52;;
56173;SDS011;42058;52.308;20.924;2022-12-20T12:37:54;50.95;;;20.00;;
56173;SDS011;42058;52.308;20.924;2022-12-20T12:43:43;43.87;;;19.25;;
56173;SDS011;42058;52.308;20.924;2022-12-20T12:46:27;45.73;;;18.93;;
56173;SDS011;42058;52.308;20.924;2022-12-20T12:51:39;53.42;;;20.27;;
56173;SDS011;42058;52.308;20.924;2022-12-20T12:56:50;53.58;;;19.27;;
56173;SDS011;42058;52.308;20.924;2022-12-20T13:04:53;50.52;;;19.40;;
56173;SDS011;42058;52.308;20.924;2022-12-20T13:18:01;50.33;;;18.60;;
56173;SDS011;42058;52.308;20.924;2022-12-20T13:20:38;44.38;;;17.87;;
56173;SDS011;42058;52.308;20.924;2022-12-20T13:23:09;46.90;;;19.35;;
56173;SDS011;42058;52.308;20.924;2022-12-20T13:33:40;43.30;;;18.30;;
56173;SDS011;42058;52.308;20.924;2022-12-20T13:38:58;49.40;;;18.73;;
56173;SDS011;42058;52.308;20.924;2022-12-20T13:41:49;49.05;;;19.87;;
56173;SDS011;42058;52.308;20.924;2022-12-20T13:44:22;48.35;;;18.07;;
56173;SDS011;42058;52.308;20.924;2022-12-20T13:47:03;46.42;;;18.87;;
56173;SDS011;42058;52.308;20.924;2022-12-20T13:49:38;49.80;;;19.87;;
56173;SDS011;42058;52.308;20.924;2022-12-20T13:54:49;44.83;;;18.42;;
56173;SDS011;42058;52.308;20.924;2022-12-20T13:57:26;49.23;;;18.73;;
56173;SDS011;42058;52.308;20.924;2022-12-20T14:00:00;44.10;;;17.85;;
56173;SDS011;42058;52.308;20.924;2022-12-20T14:02:32;50.98;;;19.15;;
56173;SDS011;42058;52.308;20.924;2022-12-20T14:05:04;48.08;;;18.12;;
56173;SDS011;42058;52.308;20.924;2022-12-20T14:07:55;44.90;;;18.40;;
56173;SDS011;42058;52.308;20.924;2022-12-20T14:10:29;46.83;;;18.62;;
56173;SDS011;42058;52.308;20.924;2022-12-20T14:12:58;44.20;;;18.87;;
56173;SDS011;42058;52.308;20.924;2022-12-20T14:18:05;51.73;;;19.55;;
56173;SDS011;42058;52.308;20.924;2022-12-20T14:23:24;49.27;;;19.75;;
56173;SDS011;42058;52.308;20.924;2022-12-20T14:26:03;48.98;;;20.10;;
56173;SDS011;42058;52.308;20.924;2022-12-20T14:31:26;46.15;;;20.60;;
56173;SDS011;42058;52.308;20.924;2022-12-20T14:36:48;48.87;;;20.12;;
56173;SDS011;42058;52.308;20.924;2022-12-20T14:39:26;50.10;;;19.05;;
56173;SDS011;42058;52.308;20.924;2022-12-20T14:44:35;53.55;;;20.00;;
56173;SDS011;42058;52.308;20.924;2022-12-20T14:49:57;53.23;;;19.30;;
56173;SDS011;42058;52.308;20.924;2022-12-20T15:02:56;53.33;;;21.42;;
56173;SDS011;42058;52.308;20.924;2022-12-20T15:08:29;50.00;;;21.20;;
56173;SDS011;42058;52.308;20.924;2022-12-20T15:11:18;53.30;;;22.60;;
56173;SDS011;42058;52.308;20.924;2022-12-20T15:13:46;49.08;;;21.68;;
56173;SDS011;42058;52.308;20.924;2022-12-20T15:16:19;55.15;;;21.77;;
56173;SDS011;42058;52.308;20.924;2022-12-20T15:18:56;56.35;;;22.25;;
56173;SDS011;42058;52.308;20.924;2022-12-20T15:21:27;55.60;;;22.35;;
56173;SDS011;42058;52.308;20.924;2022-12-20T15:24:08;53.08;;;22.60;;
56173;SDS011;42058;52.308;20.924;2022-12-20T15:26:41;55.08;;;21.80;;
56173;SDS011;42058;52.308;20.924;2022-12-20T15:29:17;51.55;;;21.80;;
56173;SDS011;42058;52.308;20.924;2022-12-20T15:31:52;52.75;;;21.95;;
56173;SDS011;42058;52.308;20.924;2022-12-20T15:34:27;56.37;;;22.95;;
56173;SDS011;42058;52.308;20.924;2022-12-20T15:36:59;55.20;;;22.15;;
56173;SDS011;42058;52.308;20.924;2022-12-20T15:39:27;55.88;;;22.48;;
56173;SDS011;42058;52.308;20.924;2022-12-20T15:41:54;56.53;;;22.32;;
56173;SDS011;42058;52.308;20.924;2022-12-20T15:44:27;56.00;;;22.13;;
56173;SDS011;42058;52.308;20.924;2022-12-20T15:46:58;57.17;;;22.20;;
56173;SDS011;42058;52.308;20.924;2022-12-20T15:49:25;57.65;;;22.17;;
56173;SDS011;42058;52.308;20.924;2022-12-20T15:51:56;58.38;;;23.07;;
56173;SDS011;42058;52.308;20.924;2022-12-20T15:54:29;62.35;;;24.40;;
56173;SDS011;42058;52.308;20.924;2022-12-20T15:57:00;54.73;;;22.05;;
56173;SDS011;42058;52.308;20.924;2022-12-20T15:59:31;50.95;;;20.48;;
56173;SDS011;42058;52.308;20.924;2022-12-20T16:01:57;51.95;;;21.75;;
56173;SDS011;42058;52.308;20.924;2022-12-20T16:04:28;55.55;;;21.80;;
56173;SDS011;42058;52.308;20.924;2022-12-20T16:06:54;54.13;;;21.77;;
56173;SDS011;42058;52.308;20.924;2022-12-20T16:09:21;52.53;;;21.97;;
56173;SDS011;42058;52.308;20.924;2022-12-20T16:11:49;57.43;;;22.15;;
56173;SDS011;42058;52.308;20.924;2022-12-20T16:14:18;54.60;;;23.02;;
56173;SDS011;42058;52.308;20.924;2022-12-20T16:16:49;53.50;;;22.58;;
56173;SDS011;42058;52.308;20.924;2022-12-20T16:19:19;50.85;;;20.60;;
56173;SDS011;42058;52.308;20.924;2022-12-20T16:21:48;54.27;;;21.62;;
56173;SDS011;42058;52.308;20.924;2022-12-20T16:24:23;51.55;;;21.33;;
56173;SDS011;42058;52.308;20.924;2022-12-20T16:26:55;49.27;;;21.65;;
56173;SDS011;42058;52.308;20.924;2022-12-20T16:29:25;50.95;;;21.35;;
56173;SDS011;42058;52.308;20.924;2022-12-20T16:31:55;56.30;;;21.07;;
56173;SDS011;42058;52.308;20.924;2022-12-20T16:34:27;49.15;;;21.30;;